createdAt,value
2023-02-17T00:02:39.380Z,19.67
2023-02-17T00:07:40.986Z,19.48
2023-02-17T00:12:42.316Z,18.77
2023-02-17T00:17:43.661Z,20.17
2023-02-17T00:22:45.062Z,17.80
2023-02-17T00:27:47.514Z,18.35
2023-02-17T00:32:48.918Z,19.13
2023-02-17T00:37:50.601Z,17.38
2023-02-17T00:42:54.738Z,18.30
2023-02-17T00:47:56.173Z,19.60
2023-02-17T00:52:58.003Z,17.70
2023-02-17T00:57:59.467Z,19.40
2023-02-17T01:03:00.759Z,18.38
2023-02-17T01:08:02.157Z,19.98
2023-02-17T01:13:03.607Z,19.08
2023-02-17T01:18:05.170Z,17.95
2023-02-17T01:23:08.859Z,19.63
2023-02-17T01:28:15.491Z,18.52
2023-02-17T01:33:17.020Z,18.17
2023-02-17T01:38:18.468Z,19.38
2023-02-17T01:43:19.899Z,16.58
2023-02-17T01:48:48.870Z,18.00
2023-02-17T01:54:04.583Z,16.42
2023-02-17T01:59:12.068Z,16.23
2023-02-17T02:04:17.756Z,16.40
2023-02-17T02:09:23.381Z,13.75
2023-02-17T02:14:25.403Z,14.48
2023-02-17T02:20:03.141Z,14.68
2023-02-17T02:25:35.995Z,15.18
2023-02-17T02:31:03.208Z,15.77
2023-02-17T02:36:31.052Z,14.70
2023-02-17T02:41:41.105Z,13.85
2023-02-17T02:46:42.500Z,13.43
2023-02-17T02:51:54.032Z,12.95
2023-02-17T02:57:10.661Z,12.38
2023-02-17T03:02:16.789Z,13.23
2023-02-17T03:07:24.614Z,12.73
2023-02-17T03:12:27.598Z,13.00
2023-02-17T03:17:33.197Z,12.07
2023-02-17T03:22:41.725Z,10.43
2023-02-17T03:27:43.094Z,9.95
2023-02-17T03:32:44.599Z,9.20
2023-02-17T03:37:45.971Z,9.05
2023-02-17T03:42:48.189Z,9.18
2023-02-17T03:47:49.577Z,8.35
2023-02-17T03:52:51.045Z,8.45
2023-02-17T03:57:52.366Z,8.68
2023-02-17T04:02:53.905Z,8.15
2023-02-17T04:07:55.259Z,8.10
2023-02-17T04:12:56.593Z,8.15
2023-02-17T04:17:57.939Z,7.57
2023-02-17T04:22:59.271Z,7.40
2023-02-17T04:28:01.434Z,7.40
2023-02-17T04:33:04.583Z,6.90
2023-02-17T04:38:06.444Z,6.68
2023-02-17T04:43:08.438Z,7.35
2023-02-17T04:48:09.854Z,7.55
2023-02-17T04:53:11.803Z,8.35
2023-02-17T04:58:13.118Z,7.10
2023-02-17T05:03:14.477Z,8.25
2023-02-17T05:08:15.922Z,7.93
2023-02-17T05:13:17.301Z,7.10
2023-02-17T05:18:18.698Z,6.93
2023-02-17T05:23:22.507Z,8.18
2023-02-17T05:28:23.852Z,6.63
2023-02-17T05:33:25.157Z,5.93
2023-02-17T05:38:26.474Z,6.03
2023-02-17T05:43:27.892Z,5.88
2023-02-17T05:48:29.433Z,5.97
2023-02-17T05:53:31.325Z,6.47
2023-02-17T05:58:32.701Z,6.00
2023-02-17T06:03:34.245Z,5.80
2023-02-17T06:08:36.166Z,5.25
2023-02-17T06:13:37.499Z,4.68
2023-02-17T06:18:38.888Z,5.05
2023-02-17T06:23:40.324Z,5.13
2023-02-17T06:28:41.717Z,4.55
2023-02-17T06:33:43.080Z,5.00
2023-02-17T06:38:44.769Z,4.43
2023-02-17T06:43:46.507Z,3.85
2023-02-17T06:48:47.869Z,3.85
2023-02-17T06:53:49.294Z,3.72
2023-02-17T06:58:51.230Z,4.22
2023-02-17T07:03:53.844Z,4.65
2023-02-17T07:08:55.282Z,3.65
2023-02-17T07:13:57.736Z,3.95
2023-02-17T07:18:59.128Z,4.07
2023-02-17T07:24:00.478Z,3.58
2023-02-17T07:29:01.950Z,3.50
2023-02-17T07:34:04.619Z,3.42
2023-02-17T07:39:06.943Z,3.45
2023-02-17T07:44:08.565Z,3.28
2023-02-17T07:49:09.878Z,3.60
2023-02-17T07:54:13.115Z,4.05
2023-02-17T07:59:15.127Z,3.03
2023-02-17T08:04:16.575Z,3.38
2023-02-17T08:09:36.481Z,3.45
2023-02-17T08:14:38.741Z,2.75
2023-02-17T08:19:47.935Z,3.13
2023-02-17T08:24:50.716Z,2.70
2023-02-17T08:29:52.590Z,2.50
2023-02-17T08:34:57.314Z,2.60
2023-02-17T08:40:01.923Z,2.90
2023-02-17T08:50:07.730Z,2.85
2023-02-17T08:55:09.107Z,2.80
2023-02-17T09:00:11.559Z,2.80
2023-02-17T09:05:15.187Z,2.58
2023-02-17T09:10:16.554Z,3.20
2023-02-17T09:15:18.306Z,2.90
2023-02-17T09:20:25.038Z,2.55
2023-02-17T09:25:26.844Z,3.40
2023-02-17T09:30:28.250Z,3.20
2023-02-17T09:35:30.542Z,3.25
2023-02-17T09:40:49.003Z,4.07
2023-02-17T09:45:56.309Z,4.15
2023-02-17T09:51:06.599Z,4.13
2023-02-17T09:56:16.488Z,4.00
2023-02-17T10:01:22.290Z,4.18
2023-02-17T10:06:29.172Z,4.45
2023-02-17T10:11:32.693Z,5.10
2023-02-17T10:16:44.040Z,5.35
2023-02-17T10:21:58.944Z,5.13
2023-02-17T10:27:18.179Z,5.40
2023-02-17T10:32:27.740Z,5.50
2023-02-17T10:38:02.080Z,5.57
2023-02-17T10:43:07.803Z,4.40
2023-02-17T10:48:14.059Z,4.38
2023-02-17T10:53:20.101Z,4.90
2023-02-17T10:58:40.199Z,4.43
2023-02-17T11:03:41.632Z,4.20
2023-02-17T11:08:51.768Z,4.70
2023-02-17T11:14:04.494Z,4.70
2023-02-17T11:19:08.063Z,4.18
2023-02-17T11:24:13.043Z,4.03
2023-02-17T11:29:21.577Z,3.85
2023-02-17T11:34:28.382Z,3.38
2023-02-17T11:39:30.265Z,3.78
2023-02-17T11:44:31.648Z,3.85
2023-02-17T11:49:51.496Z,3.78
2023-02-17T11:55:23.762Z,3.55
2023-02-17T12:00:34.405Z,3.85
2023-02-17T12:05:55.478Z,3.33
2023-02-17T12:11:17.053Z,4.13
2023-02-17T12:16:31.525Z,3.05
2023-02-17T12:21:56.372Z,3.42
2023-02-17T12:32:32.655Z,2.75
2023-02-17T12:37:43.605Z,2.40
2023-02-17T12:42:58.262Z,1.85
2023-02-17T12:48:04.969Z,1.85
2023-02-17T12:53:14.038Z,1.80
2023-02-17T12:58:19.748Z,1.80
2023-02-17T13:03:21.464Z,2.88
2023-02-17T13:08:30.087Z,1.27
2023-02-17T13:13:33.733Z,1.30
2023-02-17T13:18:37.683Z,0.60
2023-02-17T13:23:41.035Z,0.90
2023-02-17T13:28:42.788Z,1.10
2023-02-17T13:33:58.840Z,1.05
2023-02-17T13:39:03.567Z,0.93
2023-02-17T13:44:24.408Z,1.02
2023-02-17T13:49:27.674Z,0.95
2023-02-17T13:54:29.313Z,0.90
2023-02-17T13:59:30.701Z,1.20
2023-02-17T14:04:32.143Z,1.35
2023-02-17T14:09:35.129Z,1.33
2023-02-17T14:14:39.023Z,0.98
2023-02-17T14:19:48.910Z,1.23
2023-02-17T14:25:12.689Z,1.33
2023-02-17T14:30:36.096Z,0.90
2023-02-17T14:35:39.187Z,1.50
2023-02-17T14:40:41.107Z,1.60
2023-02-17T14:45:42.475Z,1.40
2023-02-17T14:50:44.815Z,1.58
2023-02-17T14:55:53.387Z,1.65
2023-02-17T15:00:55.184Z,1.40
2023-02-17T15:05:56.725Z,1.70
2023-02-17T15:10:58.278Z,1.15
2023-02-17T15:15:59.838Z,0.93
2023-02-17T15:21:01.210Z,1.38
2023-02-17T15:26:02.650Z,0.98
2023-02-17T15:31:04.405Z,1.02
2023-02-17T15:36:06.470Z,1.10
2023-02-17T15:41:25.766Z,0.90
2023-02-17T15:46:30.913Z,0.85
2023-02-17T15:51:32.326Z,0.70
2023-02-17T15:56:47.010Z,0.60
2023-02-17T16:01:48.837Z,0.52
2023-02-17T16:06:50.159Z,0.65
2023-02-17T16:11:54.201Z,1.15
2023-02-17T16:16:55.730Z,0.50
2023-02-17T16:21:57.159Z,0.60
2023-02-17T16:26:58.531Z,0.40
2023-02-17T16:32:00.189Z,0.60
2023-02-17T16:37:03.700Z,0.40
2023-02-17T16:42:05.415Z,0.50
2023-02-17T16:47:17.017Z,0.40
2023-02-17T16:52:26.877Z,0.80
2023-02-17T16:57:28.584Z,1.05
2023-02-17T17:02:30.318Z,0.70
2023-02-17T17:07:32.172Z,0.40
2023-02-17T17:12:33.761Z,0.65
2023-02-17T17:17:41.202Z,0.47
2023-02-17T17:22:43.385Z,0.80
2023-02-17T17:27:45.931Z,0.85
2023-02-17T17:32:47.512Z,1.10
2023-02-17T17:37:49.744Z,1.00
2023-02-17T17:42:51.604Z,1.17
2023-02-17T17:47:53.134Z,1.00
2023-02-17T17:52:54.536Z,1.30
2023-02-17T17:57:55.977Z,1.27
2023-02-17T18:02:57.456Z,0.68
2023-02-17T18:07:59.034Z,1.25
2023-02-17T18:13:00.455Z,1.30
2023-02-17T18:18:02.377Z,0.90
2023-02-17T18:23:03.805Z,1.27
2023-02-17T18:28:05.157Z,1.17
2023-02-17T18:33:06.576Z,1.48
2023-02-17T18:38:07.905Z,1.20
2023-02-17T18:43:09.355Z,1.25
2023-02-17T18:48:10.689Z,1.08
2023-02-17T18:53:12.324Z,1.27
2023-02-17T18:58:13.830Z,1.17
2023-02-17T19:03:15.114Z,1.40
2023-02-17T19:08:16.941Z,1.13
2023-02-17T19:13:18.720Z,1.60
2023-02-17T19:18:20.247Z,1.50
2023-02-17T19:23:21.638Z,1.55
2023-02-17T19:28:23.532Z,1.80
2023-02-17T19:33:27.665Z,1.98
2023-02-17T19:38:30.269Z,1.90
2023-02-17T19:43:31.656Z,2.13
2023-02-17T19:48:33.429Z,2.17
2023-02-17T19:53:35.581Z,2.20
2023-02-17T19:58:37.318Z,2.10
2023-02-17T20:03:39.358Z,2.08
2023-02-17T20:08:40.741Z,2.00
2023-02-17T20:13:46.038Z,2.58
2023-02-17T20:18:51.205Z,2.30
2023-02-17T20:23:52.766Z,2.50
2023-02-17T20:28:54.970Z,3.22
2023-02-17T20:33:56.909Z,3.33
2023-02-17T20:38:59.023Z,3.50
2023-02-17T20:44:02.757Z,3.63
2023-02-17T20:49:04.243Z,3.55
2023-02-17T20:54:05.995Z,3.97
2023-02-17T20:59:09.011Z,4.47
2023-02-17T21:04:10.780Z,4.15
2023-02-17T21:09:15.338Z,4.53
2023-02-17T21:14:16.718Z,4.00
2023-02-17T21:19:19.436Z,4.53
2023-02-17T21:24:21.011Z,4.32
2023-02-17T21:29:22.841Z,4.18
2023-02-17T21:34:24.216Z,3.92
2023-02-17T21:39:25.612Z,5.00
2023-02-17T21:44:45.542Z,4.20
2023-02-17T21:49:47.731Z,4.13
2023-02-17T21:54:49.110Z,4.55
2023-02-17T21:59:50.564Z,4.15
2023-02-17T22:04:56.398Z,3.58
2023-02-17T22:10:01.117Z,3.30
2023-02-17T22:15:04.680Z,3.35
2023-02-17T22:20:06.775Z,4.20
2023-02-17T22:25:08.144Z,4.13
2023-02-17T22:30:10.263Z,3.55
2023-02-17T22:35:11.658Z,4.32
2023-02-17T22:40:13.119Z,3.95
2023-02-17T22:45:14.620Z,4.55
2023-02-17T22:50:16.510Z,4.15
2023-02-17T22:55:17.952Z,4.22
2023-02-17T23:00:19.316Z,4.05
2023-02-17T23:05:20.688Z,4.07
2023-02-17T23:10:21.991Z,3.92
2023-02-17T23:15:39.076Z,3.88
2023-02-17T23:20:43.967Z,4.10
2023-02-17T23:25:49.744Z,4.05
2023-02-17T23:30:52.316Z,3.97
2023-02-17T23:35:53.721Z,4.32
2023-02-17T23:40:56.099Z,4.25
2023-02-17T23:45:58.350Z,3.80
2023-02-17T23:51:02.606Z,4.60
2023-02-17T23:56:07.359Z,4.50
